Addison, Ohio
Current Conditions -  °F | °C
As of 6:35 AM on Wednesday 26 Nov 2014 (Local Time) from K3I2 Reporting Station
Scattered Clouds Scattered Clouds  
Wind Chill:   Ceiling: Unl
Heat Index:   Visibility: 10mi
Dew Point: -1°   Wind: 0mph
Humidity: 81%   Direction: NA
Pressure: 30.06"   Gusts: NA
Location:  38.7997°N, 82.2553°W
Report Text: K3I2 261135Z AUTO 00000KT 10SM SCT090 02/M01 A3006 RMK AO2
Loading
Personal Weather Stations






























Interactive Weather Map New forecast layout! Learn more

10-Day Weather Forecast

Advertisements
Track Severe Weather on mobile